Time;durP1;ratioP1;P1;durP2;ratioP2;P2;SDS_P1;SDS_P2;PMS_P1;PMS_P2;Temp;Humidity;BMP_temperature;BMP_pressure;BME280_temperature;BME280_humidity;BME280_pressure;Samples;Min_cycle;Max_cycle;Signal;HPM_P1;HPM_P2
2021/10/17 00:02:23;;;;;;;217.90;86.10;;;;;;;1.23;90.35;99751.94;1771255;81;21050;-71
2021/10/17 00:04:49;;;;;;;213.65;84.83;;;;;;;1.20;90.61;99748.38;1771554;81;21428;-71
2021/10/17 00:07:16;;;;;;;206.10;82.97;;;;;;;1.18;90.63;99749.69;1771344;81;21468;-71
2021/10/17 00:09:43;;;;;;;187.57;78.83;;;;;;;1.14;90.66;99748.05;1771345;81;20959;-71
2021/10/17 00:12:11;;;;;;;198.35;77.95;;;;;;;1.12;90.56;99749.37;1771189;81;20872;-71
2021/10/17 00:14:38;;;;;;;186.40;76.22;;;;;;;1.08;90.42;99746.34;1771740;81;21781;-71
2021/10/17 00:17:07;;;;;;;176.37;76.60;;;;;;;1.06;90.29;99746.30;1771352;81;21467;-71
2021/10/17 00:19:34;;;;;;;174.00;72.50;;;;;;;1.00;90.33;99746.77;1771395;81;21554;-72
2021/10/17 00:22:03;;;;;;;168.17;66.33;;;;;;;0.97;90.35;99745.91;1771196;81;21403;-71
2021/10/17 00:24:32;;;;;;;163.43;67.90;;;;;;;0.93;90.44;99751.52;1771127;80;20908;-71
2021/10/17 00:26:59;;;;;;;158.52;64.82;;;;;;;0.90;90.70;99746.08;1771316;81;21147;-70
2021/10/17 00:29:26;;;;;;;138.92;58.73;;;;;;;0.82;90.38;99745.14;1771274;81;20963;-71
2021/10/17 00:31:53;;;;;;;158.22;60.88;;;;;;;0.75;90.78;99739.09;1771293;81;20880;-71
2021/10/17 00:34:20;;;;;;;142.53;61.35;;;;;;;0.72;90.99;99744.16;1771430;81;20849;-71
2021/10/17 00:36:47;;;;;;;127.07;54.93;;;;;;;0.66;90.98;99745.44;1771270;81;20893;-71
2021/10/17 00:39:13;;;;;;;113.17;50.50;;;;;;;0.62;90.98;99748.34;1771163;81;23365;-71
2021/10/17 00:41:40;;;;;;;129.32;51.08;;;;;;;0.61;91.08;99744.53;1771255;81;20884;-69
2021/10/17 00:44:07;;;;;;;120.20;49.53;;;;;;;0.60;91.61;99742.36;1771301;81;20877;-69
2021/10/17 00:46:33;;;;;;;104.65;46.05;;;;;;;0.62;91.61;99742.94;1771308;81;20936;-69
2021/10/17 00:49:00;;;;;;;117.57;48.42;;;;;;;0.60;91.47;99741.02;1771329;81;20968;-70
2021/10/17 00:51:27;;;;;;;126.97;48.10;;;;;;;0.57;91.40;99743.42;1771228;81;21083;-69
2021/10/17 00:53:55;;;;;;;112.42;46.88;;;;;;;0.54;91.45;99739.33;1771132;81;21011;-70
2021/10/17 00:56:22;;;;;;;101.62;44.18;;;;;;;0.56;91.79;99739.90;1771279;81;20881;-69
2021/10/17 00:58:48;;;;;;;114.12;45.20;;;;;;;0.55;91.68;99740.97;1771132;81;20945;-70
2021/10/17 01:01:15;;;;;;;105.05;43.35;;;;;;;0.53;91.66;99745.79;1771396;81;20905;-70
2021/10/17 01:03:41;;;;;;;96.50;41.20;;;;;;;0.53;91.93;99738.22;1771304;81;21139;-71
2021/10/17 01:06:12;;;;;;;94.58;40.70;;;;;;;0.54;92.13;99738.50;1771518;81;20912;-70
2021/10/17 01:08:37;;;;;;;87.27;39.98;;;;;;;0.56;92.32;99740.43;1771109;81;20948;-70
2021/10/17 01:11:04;;;;;;;93.47;38.65;;;;;;;0.57;92.40;99742.89;1771316;81;20967;-71
2021/10/17 01:13:31;;;;;;;92.50;38.78;;;;;;;0.59;92.62;99742.08;1771333;81;20876;-70
2021/10/17 01:15:59;;;;;;;105.72;39.67;;;;;;;0.64;92.93;99737.29;1771276;81;21129;-70
2021/10/17 01:18:27;;;;;;;83.30;38.30;;;;;;;0.72;93.36;99739.58;1769583;81;20932;-70
2021/10/17 01:20:57;;;;;;;92.42;38.67;;;;;;;0.81;93.65;99738.10;1771271;81;21540;-70
2021/10/17 01:23:23;;;;;;;85.90;38.35;;;;;;;0.92;94.04;99745.30;1773781;80;21046;-71
2021/10/17 01:25:50;;;;;;;86.20;36.68;;;;;;;1.01;94.23;99740.29;1787801;80;21424;-71
2021/10/17 01:28:19;;;;;;;89.47;37.80;;;;;;;1.09;94.43;99734.46;1787680;80;21168;-70
2021/10/17 01:30:45;;;;;;;81.50;36.65;;;;;;;1.19;94.63;99736.45;1787627;80;21530;-71
2021/10/17 01:33:12;;;;;;;92.72;36.75;;;;;;;1.27;94.90;99730.09;1787815;80;20915;-70
2021/10/17 01:35:39;;;;;;;81.40;36.68;;;;;;;1.37;95.07;99735.34;1787853;80;21063;-70
2021/10/17 01:38:07;;;;;;;94.50;37.20;;;;;;;1.44;95.23;99730.03;1787667;80;20971;-71
2021/10/17 01:40:35;;;;;;;87.05;35.52;;;;;;;1.53;95.45;99730.41;1787732;80;21153;-71
2021/10/17 01:43:02;;;;;;;83.97;33.23;;;;;;;1.61;95.74;99738.91;1787742;80;21399;-71
2021/10/17 01:45:31;;;;;;;88.03;34.23;;;;;;;1.69;96.08;99739.00;1757646;80;20848;-71
2021/10/17 01:47:57;;;;;;;77.97;33.00;;;;;;;1.77;96.26;99736.35;1787697;80;20924;-71
2021/10/17 01:50:24;;;;;;;89.13;35.43;;;;;;;1.81;96.37;99736.13;1788179;80;20967;-71
2021/10/17 01:52:51;;;;;;;68.72;30.95;;;;;;;1.87;96.53;99739.99;1787777;80;21769;-71
2021/10/17 01:55:18;;;;;;;77.37;32.03;;;;;;;1.96;96.80;99743.06;1756993;80;21463;-71
2021/10/17 01:57:45;;;;;;;75.42;32.80;;;;;;;2.05;97.04;99739.38;1787639;80;20967;-70
2021/10/17 02:00:14;;;;;;;84.20;34.63;;;;;;;2.13;97.47;99741.63;1787690;80;21517;-70
2021/10/17 02:02:43;;;;;;;70.95;30.45;;;;;;;2.24;97.90;99744.17;1787716;80;21285;-71
2021/10/17 02:05:12;;;;;;;78.33;31.85;;;;;;;2.34;97.92;99740.72;1786985;80;21162;-69
2021/10/17 02:07:41;;;;;;;73.50;31.90;;;;;;;2.39;97.86;99744.83;1788096;80;21399;-69
2021/10/17 02:10:09;;;;;;;71.42;32.55;;;;;;;2.46;98.03;99743.27;1787957;80;20912;-69
2021/10/17 02:12:36;;;;;;;72.40;30.60;;;;;;;2.54;98.26;99743.61;1788064;80;20896;-69
2021/10/17 02:15:05;;;;;;;66.62;29.12;;;;;;;2.63;98.51;99747.48;1787933;80;20880;-70
2021/10/17 02:17:34;;;;;;;63.95;29.40;;;;;;;2.73;98.79;99741.86;1787650;80;20966;-70
2021/10/17 02:20:01;;;;;;;66.75;28.10;;;;;;;2.82;98.97;99741.66;1787702;80;20868;-69
2021/10/17 02:22:29;;;;;;;57.95;26.07;;;;;;;2.90;98.90;99750.64;1787668;80;20928;-70
2021/10/17 02:24:55;;;;;;;65.85;26.65;;;;;;;2.95;99.00;99747.42;1760061;80;21030;-70
2021/10/17 02:27:22;;;;;;;55.33;24.57;;;;;;;3.02;99.10;99747.74;1790857;80;20919;-70
2021/10/17 02:29:52;;;;;;;52.43;24.37;;;;;;;3.08;99.27;99750.23;1790823;80;21529;-70
2021/10/17 02:32:23;;;;;;;52.55;24.50;;;;;;;3.14;99.33;99749.72;1789553;80;20943;-70
2021/10/17 02:34:51;;;;;;;50.45;23.12;;;;;;;3.17;99.27;99754.08;1789888;80;20915;-69
2021/10/17 02:37:18;;;;;;;54.13;23.92;;;;;;;3.20;99.35;99758.98;1790774;80;20915;-69
2021/10/17 02:39:45;;;;;;;45.80;23.87;;;;;;;3.26;99.59;99756.58;1753298;81;20924;-69
2021/10/17 02:42:11;;;;;;;50.45;22.58;;;;;;;3.29;99.72;99744.39;1723367;82;21074;-69
2021/10/17 02:44:38;;;;;;;51.37;24.98;;;;;;;3.34;99.90;99749.02;1721725;83;20939;-69
2021/10/17 02:47:06;;;;;;;45.30;22.58;;;;;;;3.41;100.00;99749.61;1721895;83;20919;-69
2021/10/17 02:49:34;;;;;;;51.95;22.65;;;;;;;3.46;100.00;99749.09;1723347;83;20987;-69
2021/10/17 02:52:02;;;;;;;45.73;22.55;;;;;;;3.51;100.00;99750.45;1722007;83;21419;-70
2021/10/17 02:54:29;;;;;;;47.35;23.50;;;;;;;3.57;100.00;99745.86;1722053;83;21133;-70
2021/10/17 02:56:56;;;;;;;44.35;21.57;;;;;;;3.65;100.00;99751.59;1723333;83;20947;-70
2021/10/17 02:59:25;;;;;;;47.25;21.97;;;;;;;3.65;100.00;99751.59;1718222;83;21578;-71
2021/10/17 03:01:52;;;;;;;44.75;22.02;;;;;;;3.71;100.00;99755.16;1721803;83;20907;-70
2021/10/17 03:04:19;;;;;;;44.27;21.40;;;;;;;3.74;100.00;99750.55;1723608;83;21479;-70
2021/10/17 03:06:48;;;;;;;44.27;21.30;;;;;;;3.77;100.00;99755.45;1721746;83;21047;-70
2021/10/17 03:09:15;;;;;;;44.25;22.45;;;;;;;3.84;100.00;99753.84;1722427;83;21489;-70
2021/10/17 03:11:43;;;;;;;43.20;20.82;;;;;;;3.90;100.00;99759.02;1697134;83;20948;-71
2021/10/17 03:14:10;;;;;;;41.80;20.25;;;;;;;3.95;100.00;99753.61;1721851;83;20880;-70
2021/10/17 03:16:37;;;;;;;40.55;20.37;;;;;;;4.02;100.00;99749.83;1721845;83;20899;-71
2021/10/17 03:19:04;;;;;;;45.45;21.42;;;;;;;4.02;100.00;99749.83;1723299;82;21173;-71
2021/10/17 03:21:31;;;;;;;46.68;23.85;;;;;;;4.06;100.00;99754.42;1721805;83;21477;-72
2021/10/17 03:23:58;;;;;;;46.33;20.75;;;;;;;4.06;100.00;99755.78;1704422;83;21117;-71
2021/10/17 03:26:25;;;;;;;43.50;22.20;;;;;;;4.12;100.00;99757.97;1747503;81;20893;-70
2021/10/17 03:28:51;;;;;;;45.50;21.90;;;;;;;4.13;100.00;99754.98;1697274;84;21470;-70
2021/10/17 03:31:18;;;;;;;45.60;21.95;;;;;;;4.17;100.00;99758.80;1667190;84;21132;-74
2021/10/17 03:33:46;;;;;;;40.90;21.82;;;;;;;4.20;100.00;99753.38;1743812;81;20946;-76
2021/10/17 03:36:14;;;;;;;46.18;23.05;;;;;;;4.22;100.00;99753.92;1696590;84;20977;-72
2021/10/17 03:38:42;;;;;;;40.67;21.23;;;;;;;4.24;100.00;99751.21;1696676;83;20953;-71
2021/10/17 03:41:13;;;;;;;50.08;22.90;;;;;;;4.28;100.00;99750.95;1681242;84;20905;-73
2021/10/17 03:43:41;;;;;;;48.90;22.90;;;;;;;4.28;100.00;99751.48;1696850;84;21145;-69
2021/10/17 03:46:08;;;;;;;41.85;20.02;;;;;;;4.29;100.00;99754.48;1696654;84;21005;-68
2021/10/17 03:48:35;;;;;;;35.95;20.23;;;;;;;4.33;100.00;99752.86;1696704;84;20949;-69
2021/10/17 03:51:08;;;;;;;47.08;20.50;;;;;;;4.33;100.00;99752.86;1696262;84;21059;-70
2021/10/17 03:53:33;;;;;;;42.67;21.35;;;;;;;4.43;100.00;99761.57;1696693;84;21470;-70
2021/10/17 03:56:00;;;;;;;38.75;20.23;;;;;;;4.43;100.00;99761.57;1696575;84;21153;-70
2021/10/17 03:58:27;;;;;;;37.53;20.40;;;;;;;4.44;100.00;99757.77;1696666;83;20910;-70
2021/10/17 04:00:54;;;;;;;40.85;19.55;;;;;;;4.46;100.00;99755.59;1696796;84;21036;-69
2021/10/17 04:03:20;;;;;;;34.53;20.20;;;;;;;4.47;100.00;99758.05;1697058;84;20870;-70
2021/10/17 04:05:49;;;;;;;32.83;18.30;;;;;;;4.47;100.00;99758.05;1696597;84;21552;-69
2021/10/17 04:08:16;;;;;;;37.28;19.23;;;;;;;4.47;100.00;99756.69;1696784;84;21157;-68
2021/10/17 04:10:43;;;;;;;38.15;19.20;;;;;;;4.45;100.00;99754.78;1696810;84;21432;-68
2021/10/17 04:13:11;;;;;;;36.70;19.02;;;;;;;4.45;100.00;99757.50;1696961;83;21444;-69
2021/10/17 04:15:40;;;;;;;35.20;19.67;;;;;;;4.47;100.00;99757.23;1696849;84;20950;-67
2021/10/17 04:18:10;;;;;;;38.55;19.48;;;;;;;4.47;100.00;99764.02;1696748;84;20961;-69
2021/10/17 04:20:37;;;;;;;35.90;19.55;;;;;;;4.48;100.00;99764.30;1696761;83;21155;-70
2021/10/17 04:23:06;;;;;;;36.70;19.67;;;;;;;4.48;100.00;99764.30;1696792;84;21036;-70
2021/10/17 04:25:35;;;;;;;37.25;20.08;;;;;;;4.45;100.00;99767.02;1713798;82;21416;-70
2021/10/17 04:28:04;;;;;;;45.78;20.92;;;;;;;4.45;100.00;99767.02;1723504;83;20977;-71
2021/10/17 04:30:31;;;;;;;63.68;22.25;;;;;;;4.44;100.00;99771.36;1723888;82;20942;-71
2021/10/17 04:32:58;;;;;;;42.45;21.95;;;;;;;4.44;100.00;99771.36;1721010;83;21158;-70
2021/10/17 04:35:25;;;;;;;39.65;22.02;;;;;;;4.46;100.00;99773.27;1723416;83;21024;-70
2021/10/17 04:37:52;;;;;;;45.63;23.32;;;;;;;4.45;100.00;99771.09;1723423;83;20870;-71
2021/10/17 04:40:21;;;;;;;38.92;22.37;;;;;;;4.45;100.00;99770.27;1723424;83;20897;-70
2021/10/17 04:42:48;;;;;;;46.15;24.87;;;;;;;4.45;100.00;99770.27;1723591;83;20976;-70
2021/10/17 04:45:14;;;;;;;48.55;24.25;;;;;;;4.47;100.00;99773.00;1723680;83;21817;-70
2021/10/17 04:47:41;;;;;;;46.15;24.32;;;;;;;4.47;100.00;99773.00;1723478;83;20901;-72
2021/10/17 04:50:09;;;;;;;45.23;23.25;;;;;;;4.49;100.00;99774.08;1723646;83;21476;-72
2021/10/17 04:52:37;;;;;;;46.88;24.37;;;;;;;4.52;100.00;99779.80;1723632;83;21492;-71
2021/10/17 04:55:08;;;;;;;46.28;24.90;;;;;;;4.59;100.00;99776.27;1723698;83;20933;-73
2021/10/17 04:57:36;;;;;;;;;;;;;;;4.59;100.00;99776.27;1726061;83;21211;-73
2021/10/17 05:00:05;;;;;;;53.40;23.95;;;;;;;4.63;100.00;99781.41;1736145;82;20120;-70
2021/10/17 05:02:35;;;;;;;50.92;25.60;;;;;;;4.63;100.00;99775.97;1736722;82;20998;-72
2021/10/17 05:05:02;;;;;;;57.43;28.05;;;;;;;4.71;100.00;99781.42;1736261;82;20852;-72
2021/10/17 05:07:29;;;;;;;50.83;25.17;;;;;;;4.74;100.00;99779.52;1736277;82;20880;-70
2021/10/17 05:09:57;;;;;;;48.45;25.75;;;;;;;4.81;100.00;99781.97;1736174;82;21186;-71
2021/10/17 05:12:24;;;;;;;52.17;26.35;;;;;;;4.81;100.00;99781.97;1736068;81;21019;-69
2021/10/17 05:14:51;;;;;;;48.55;25.30;;;;;;;4.88;100.00;99792.03;1736326;82;21439;-71
2021/10/17 05:17:19;;;;;;;49.08;25.37;;;;;;;4.92;100.00;99787.14;1736138;82;21427;-69
2021/10/17 05:19:46;;;;;;;48.48;24.87;;;;;;;4.99;100.00;99792.30;1736291;82;20943;-70
2021/10/17 05:22:13;;;;;;;43.02;23.92;;;;;;;5.07;100.00;99793.12;1736526;82;21110;-70
2021/10/17 05:24:40;;;;;;;43.00;22.32;;;;;;;5.11;100.00;99792.02;1736025;82;20986;-70
2021/10/17 05:27:06;;;;;;;46.65;21.82;;;;;;;5.16;100.00;99793.38;1736440;82;20852;-72
2021/10/17 05:29:33;;;;;;;41.48;21.00;;;;;;;5.23;100.00;99794.70;1736216;82;20927;-74
2021/10/17 05:32:00;;;;;;;35.15;19.77;;;;;;;5.29;100.00;99796.33;1735584;81;21459;-73
2021/10/17 05:34:27;;;;;;;40.90;20.68;;;;;;;5.37;100.00;99800.95;1736064;82;21795;-69
2021/10/17 05:36:54;;;;;;;37.83;20.08;;;;;;;5.45;100.00;99799.02;1736014;82;20903;-70
2021/10/17 05:39:20;;;;;;;34.23;18.65;;;;;;;5.52;100.00;99799.01;1736175;82;21550;-73
2021/10/17 05:41:47;;;;;;;41.53;19.87;;;;;;;5.61;100.00;99802.80;1736059;82;20935;-76
2021/10/17 05:44:14;;;;;;;51.40;25.90;;;;;;;5.71;100.00;99798.41;1736186;82;21613;-69
2021/10/17 05:46:41;;;;;;;46.80;24.60;;;;;;;5.83;100.00;99798.34;1736313;82;21503;-78
2021/10/17 05:49:07;;;;;;;50.80;23.38;;;;;;;5.93;100.00;99802.97;1736206;82;20978;-72
2021/10/17 05:51:34;;;;;;;39.73;21.57;;;;;;;6.03;100.00;99796.66;1736104;82;20934;-69
2021/10/17 05:54:01;;;;;;;38.17;20.65;;;;;;;6.10;100.00;99802.63;1736156;82;20947;-73
2021/10/17 05:56:28;;;;;;;41.65;20.95;;;;;;;6.16;100.00;99806.41;1736165;82;20978;-69
2021/10/17 05:58:55;;;;;;;38.13;20.17;;;;;;;6.23;100.00;99810.20;1736143;82;23272;-69
2021/10/17 06:01:22;;;;;;;37.28;18.55;;;;;;;6.28;100.00;99811.53;1751667;81;20900;-69
2021/10/17 06:03:51;;;;;;;33.85;18.57;;;;;;;6.32;100.00;99815.33;1763611;81;20920;-70
2021/10/17 06:06:43;;;;;;;34.27;18.90;;;;;;;6.38;100.00;99810.63;1766536;81;21833;-70
2021/10/17 06:09:11;;;;;;;32.35;18.10;;;;;;;6.43;100.00;99806.52;1766700;81;20901;-69
2021/10/17 06:11:42;;;;;;;42.40;19.92;;;;;;;6.48;100.00;99809.21;1766566;81;21166;-69
2021/10/17 06:14:10;;;;;;;35.58;16.97;;;;;;;6.52;100.00;99802.91;1766444;81;21471;-69
2021/10/17 06:16:37;;;;;;;35.33;17.70;;;;;;;6.56;100.00;99806.70;1766491;81;21579;-68
2021/10/17 06:19:03;;;;;;;32.70;17.80;;;;;;;6.63;100.00;99812.66;1766498;81;20967;-70
2021/10/17 06:21:32;;;;;;;36.60;18.25;;;;;;;6.75;100.00;99817.77;1765510;81;20968;-67
2021/10/17 06:23:59;;;;;;;38.83;18.10;;;;;;;6.88;100.00;99813.58;1765570;81;21127;-68
2021/10/17 06:26:26;;;;;;;32.80;17.07;;;;;;;7.06;100.00;99814.22;1763810;81;21467;-68
2021/10/17 06:28:53;;;;;;;33.50;16.37;;;;;;;7.23;100.00;99813.25;1763238;81;21404;-68
2021/10/17 06:31:20;;;;;;;28.70;14.93;;;;;;;7.41;99.73;99817.73;1763011;81;20928;-68
2021/10/17 06:33:47;;;;;;;32.60;14.93;;;;;;;7.50;97.81;99816.02;1758454;81;20845;-69
2021/10/17 06:36:13;;;;;;;25.88;13.28;;;;;;;7.51;96.40;99817.05;1746396;81;23321;-69
2021/10/17 06:38:41;;;;;;;25.75;13.88;;;;;;;7.51;96.00;99818.42;1733090;82;21443;-68
2021/10/17 06:41:08;;;;;;;26.27;12.80;;;;;;;7.53;95.54;99819.50;1732963;82;20926;-68
2021/10/17 06:43:37;;;;;;;23.05;12.07;;;;;;;7.54;95.36;99821.94;1756584;81;21025;-69
2021/10/17 06:46:15;;;;;;;24.20;12.45;;;;;;;7.58;94.91;99815.35;1755460;80;21055;-69
2021/10/17 06:48:43;;;;;;;40.65;13.13;;;;;;;7.66;95.13;99813.35;1755923;81;21134;-73
2021/10/17 06:51:10;;;;;;;25.43;12.88;;;;;;;7.76;94.79;99817.89;1755846;80;20992;-69
2021/10/17 06:53:36;;;;;;;25.15;13.15;;;;;;;7.87;94.58;99815.31;1756138;81;20917;-70
2021/10/17 06:56:05;;;;;;;29.18;11.50;;;;;;;7.94;93.08;99823.42;1755800;80;20996;-78
2021/10/17 06:58:32;;;;;;;23.92;11.25;;;;;;;8.01;92.38;99824.44;1755900;81;21079;-70
2021/10/17 07:00:59;;;;;;;21.90;11.93;;;;;;;8.04;89.97;99825.77;1725971;81;21520;-70
2021/10/17 07:03:26;;;;;;;22.80;11.68;;;;;;;8.03;89.83;99825.52;1726535;81;20996;-71
2021/10/17 07:06:07;;;;;;;23.12;11.85;;;;;;;8.04;89.30;99825.22;1753820;81;21472;-75
2021/10/17 07:08:34;;;;;;;27.98;12.37;;;;;;;8.08;88.50;99819.98;1755790;80;21046;-73
2021/10/17 07:11:02;;;;;;;26.77;14.80;;;;;;;8.16;89.56;99825.59;1757896;80;21007;-70
2021/10/17 07:13:49;;;;;;;27.37;11.75;;;;;;;8.35;90.53;99820.73;1770432;80;21363;-71
2021/10/17 07:16:17;;;;;;;25.90;11.43;;;;;;;8.56;88.35;99816.05;1786860;80;20923;-72
2021/10/17 07:18:44;;;;;;;24.43;10.30;;;;;;;8.74;87.51;99820.42;1786943;80;21081;-71
2021/10/17 07:21:11;;;;;;;22.32;9.25;;;;;;;8.92;84.47;99822.34;1760828;80;21489;-70
2021/10/17 07:23:38;;;;;;;18.73;8.80;;;;;;;9.07;84.77;99822.66;1755457;81;21087;-71
2021/10/17 07:26:05;;;;;;;19.17;8.73;;;;;;;9.21;81.75;99816.11;1755818;81;21112;-71
2021/10/17 07:28:33;;;;;;;25.25;9.73;;;;;;;9.28;81.10;99817.87;1701841;81;20985;-70
2021/10/17 07:31:01;;;;;;;23.12;8.38;;;;;;;9.37;81.51;99825.41;1755627;80;21060;-71
2021/10/17 07:33:30;;;;;;;19.45;8.68;;;;;;;9.53;81.22;99828.13;1754495;81;21048;-71
2021/10/17 07:35:57;;;;;;;17.35;7.70;;;;;;;9.78;81.75;99826.30;1755685;81;21072;-70
2021/10/17 07:38:24;;;;;;;24.47;8.73;;;;;;;10.10;78.49;99828.66;1755577;81;21225;-72
2021/10/17 07:40:51;;;;;;;19.62;9.00;;;;;;;10.21;78.12;99828.17;1755607;81;21559;-67
2021/10/17 07:43:18;;;;;;;21.35;8.25;;;;;;;10.40;77.74;99825.28;1776163;80;21007;-66
2021/10/17 07:45:45;;;;;;;21.57;8.53;;;;;;;10.57;75.64;99828.20;1787086;80;21022;-67
2021/10/17 07:48:12;;;;;;;20.57;10.32;;;;;;;10.61;73.92;99821.53;1719179;82;21090;-68
2021/10/17 07:50:46;;;;;;;28.17;10.90;;;;;;;10.51;74.02;99830.80;1786328;80;21920;-69
2021/10/17 07:53:15;;;;;;;170.02;71.75;;;;;;;10.48;74.64;99830.60;1786699;80;21510;-69
2021/10/17 07:55:44;;;;;;;40.45;18.52;;;;;;;10.48;74.81;99825.11;1786188;80;21530;-70
2021/10/17 07:58:16;;;;;;;;;;;;;;;10.50;74.43;99827.80;1785893;80;21043;-68
2021/10/17 08:00:52;;;;;;;100.07;40.13;;;;;;;10.52;74.52;99824.19;1786515;80;20116;-66
2021/10/17 08:03:38;;;;;;;49.03;19.00;;;;;;;10.53;73.79;99832.67;1787103;80;21642;-67
2021/10/17 08:06:17;;;;;;;;;;;;;;;10.48;73.67;99828.67;1679401;81;20966;-68
2021/10/17 08:08:44;;;;;;;84.28;30.35;;;;;;;10.49;74.04;99826.18;1725104;81;20166;-67
2021/10/17 08:11:11;;;;;;;78.15;28.32;;;;;;;10.58;73.88;99823.52;1755970;80;21442;-70
2021/10/17 08:13:38;;;;;;;107.25;36.08;;;;;;;10.65;73.08;99824.47;1756156;81;21082;-73
2021/10/17 08:16:05;;;;;;;36.93;14.20;;;;;;;10.74;73.55;99819.86;1755235;81;21543;-74
2021/10/17 08:18:33;;;;;;;48.55;15.43;;;;;;;10.88;73.30;99817.89;1755382;80;21435;-66
2021/10/17 08:21:02;;;;;;;87.25;27.00;;;;;;;11.03;72.20;99816.67;1755944;81;20947;-66
2021/10/17 08:23:28;;;;;;;37.15;12.73;;;;;;;11.15;71.88;99812.25;1755757;81;20974;-67
2021/10/17 08:25:55;;;;;;;28.73;8.08;;;;;;;11.28;68.48;99813.86;1754814;81;21082;-70
2021/10/17 08:28:23;;;;;;;42.40;15.03;;;;;;;11.27;67.34;99814.98;1727858;81;21637;-77
2021/10/17 08:30:52;;;;;;;40.33;14.18;;;;;;;11.16;67.23;99808.38;1754233;80;21161;-73
2021/10/17 08:36:02;;;;;;;26.87;8.53;;;;;;;11.08;67.03;99811.06;1755257;81;21011;-69
2021/10/17 08:38:30;;;;;;;23.12;8.95;;;;;;;11.09;67.08;99813.50;1755485;81;21090;-71
2021/10/17 08:40:59;;;;;;;21.77;9.40;;;;;;;11.20;68.11;99809.38;1754537;81;21160;-71
2021/10/17 08:43:43;;;;;;;17.35;7.47;;;;;;;11.40;66.71;99820.97;1755255;81;21573;-68
2021/10/17 08:46:12;;;;;;;29.50;10.72;;;;;;;11.46;65.23;99819.72;1754135;81;20941;-68
2021/10/17 08:48:46;;;;;;;17.67;8.08;;;;;;;11.47;65.24;99823.53;1753994;81;21522;-68
2021/10/17 08:51:14;;;;;;;19.23;6.40;;;;;;;11.48;64.71;99820.22;1754442;81;21041;-69
2021/10/17 08:53:51;;;;;;;18.23;6.30;;;;;;;11.54;65.55;99817.58;1753250;81;21158;-69
2021/10/17 08:56:20;;;;;;;18.25;6.17;;;;;;;11.70;64.95;99815.20;1753437;81;20929;-68
2021/10/17 08:58:48;;;;;;;18.48;5.95;;;;;;;11.82;63.54;99821.77;1754085;81;20961;-68
2021/10/17 09:01:17;;;;;;;17.35;6.75;;;;;;;11.89;62.26;99822.12;1751720;81;21012;-70
2021/10/17 09:03:58;;;;;;;13.93;5.00;;;;;;;11.83;61.37;99819.27;1741258;81;21036;-69
2021/10/17 09:06:32;;;;;;;11.60;5.87;;;;;;;11.75;61.13;99817.81;1756006;81;21799;-68
2021/10/17 09:09:12;;;;;;;19.07;6.03;;;;;;;11.64;60.29;99813.16;1731001;81;21624;-67
2021/10/17 09:11:48;;;;;;;17.12;5.35;;;;;;;11.49;60.49;99814.41;1695529;83;20968;-68
2021/10/17 09:14:20;;;;;;;18.82;5.80;;;;;;;11.38;60.96;99810.86;1667389;86;21070;-68
2021/10/17 09:16:49;;;;;;;16.90;5.25;;;;;;;11.25;60.26;99817.48;1667367;86;21102;-68
2021/10/17 09:19:24;;;;;;;15.80;5.50;;;;;;;11.11;58.59;99811.81;1666402;85;21108;-69
2021/10/17 09:22:03;;;;;;;12.33;4.35;;;;;;;11.01;58.43;99816.17;1667306;86;20920;-70
2021/10/17 09:24:35;;;;;;;13.98;5.12;;;;;;;10.89;57.02;99815.39;1667009;86;21097;-69
2021/10/17 09:27:16;;;;;;;15.63;6.03;;;;;;;10.81;57.86;99821.62;1644108;86;38901;-67
2021/10/17 09:29:47;;;;;;;31.75;10.82;;;;;;;10.78;56.80;99812.63;1667321;85;21003;-68
2021/10/17 09:32:17;;;;;;;22.93;7.50;;;;;;;10.72;56.54;99816.62;1666958;85;21169;-69
2021/10/17 09:35:04;;;;;;;17.20;5.30;;;;;;;10.67;56.17;99813.42;1667749;85;21066;-69
2021/10/17 09:37:41;;;;;;;11.90;5.33;;;;;;;10.65;56.03;99814.86;1667546;84;21515;-69
2021/10/17 09:40:28;;;;;;;17.92;5.95;;;;;;;10.64;56.58;99805.81;1703855;82;21057;-70
2021/10/17 09:43:15;;;;;;;15.35;5.78;;;;;;;10.65;55.73;99806.06;1703255;84;21064;-69
2021/10/17 09:45:44;;;;;;;11.12;4.75;;;;;;;10.61;55.31;99797.38;1669153;86;22038;-71
2021/10/17 09:48:10;;;;;;;19.85;5.87;;;;;;;10.56;56.06;99804.61;1703558;83;20998;-71
2021/10/17 09:50:38;;;;;;;15.50;5.90;;;;;;;10.57;56.40;99800.74;1675703;84;21562;-67
2021/10/17 09:53:11;;;;;;;16.85;6.33;;;;;;;10.58;56.48;99806.48;1703159;84;21481;-70
2021/10/17 09:55:37;;;;;;;28.70;9.33;;;;;;;10.59;56.24;99805.36;1703357;84;20992;-68
2021/10/17 09:58:05;;;;;;;21.70;8.03;;;;;;;10.58;56.21;99804.30;1710879;82;21212;-68
2021/10/17 10:00:34;;;;;;;18.52;6.33;;;;;;;10.53;55.69;99806.59;1718915;82;21000;-68
2021/10/17 10:03:01;;;;;;;20.88;6.95;;;;;;;10.48;56.10;99804.52;1686788;82;21554;-68
2021/10/17 10:05:28;;;;;;;20.90;7.42;;;;;;;10.43;56.94;99799.96;1716584;82;21526;-69
2021/10/17 10:08:00;;;;;;;21.05;6.17;;;;;;;10.42;56.61;99803.83;1719412;82;21032;-69
2021/10/17 10:10:31;;;;;;;16.67;6.67;;;;;;;10.39;56.47;99805.03;1714478;81;21147;-70
2021/10/17 10:13:03;;;;;;;21.85;6.25;;;;;;;10.32;56.78;99804.08;1716867;82;21522;-70
2021/10/17 10:15:30;;;;;;;19.02;6.35;;;;;;;10.31;57.64;99800.27;1688667;82;21038;-69
2021/10/17 10:17:59;;;;;;;19.62;5.83;;;;;;;10.32;57.26;99802.70;1716314;82;21019;-70
2021/10/17 10:20:27;;;;;;;13.40;5.87;;;;;;;10.33;57.83;99793.36;1716845;82;20983;-69
2021/10/17 10:22:53;;;;;;;17.80;6.15;;;;;;;10.35;57.66;99795.23;1719244;82;21144;-68
2021/10/17 10:25:20;;;;;;;21.65;7.33;;;;;;;10.38;57.02;99795.17;1715990;81;20968;-68
2021/10/17 10:27:47;;;;;;;27.02;7.53;;;;;;;10.42;56.75;99791.48;1689579;82;21071;-69
2021/10/17 10:30:32;;;;;;;34.38;11.38;;;;;;;10.49;56.76;99793.80;1703607;82;20960;-71
2021/10/17 10:33:18;;;;;;;19.27;7.42;;;;;;;10.52;55.26;99791.25;1698217;83;21036;-70
2021/10/17 10:36:15;;;;;;;23.83;10.20;;;;;;;10.51;54.96;99791.56;1700429;84;21867;-71
2021/10/17 10:38:57;;;;;;;28.92;10.78;;;;;;;10.52;55.20;99787.69;1701794;84;20991;-70
2021/10/17 10:41:28;;;;;;;32.97;12.37;;;;;;;10.61;55.79;99787.77;1701807;84;20918;-70
2021/10/17 10:44:16;;;;;;;35.38;11.68;;;;;;;10.73;54.68;99779.23;1701863;84;21021;-70
2021/10/17 10:46:44;;;;;;;25.57;9.83;;;;;;;10.81;53.78;99779.06;1699406;83;21568;-69
2021/10/17 10:49:12;;;;;;;22.98;7.47;;;;;;;10.83;53.56;99777.63;1653359;84;21782;-71
2021/10/17 10:51:46;;;;;;;20.30;7.67;;;;;;;10.85;53.46;99773.19;1676671;84;20898;-71
2021/10/17 10:54:30;;;;;;;21.93;7.78;;;;;;;10.87;53.46;99777.81;1702501;84;20926;-69
2021/10/17 10:56:57;;;;;;;26.35;8.43;;;;;;;10.89;53.23;99771.45;1704675;83;21553;-70
2021/10/17 10:59:28;;;;;;;24.98;9.43;;;;;;;10.86;52.66;99772.88;1703527;82;20910;-79
2021/10/17 11:02:14;;;;;;;25.15;10.23;;;;;;;10.82;52.42;99769.70;1686934;84;21575;-75
2021/10/17 11:04:45;;;;;;;42.38;17.05;;;;;;;10.80;53.43;99768.63;1688551;84;20977;-73
2021/10/17 11:07:33;;;;;;;32.05;10.60;;;;;;;10.85;53.66;99769.88;1687891;84;21086;-71
2021/10/17 11:10:30;;;;;;;17.40;6.20;;;;;;;10.90;52.91;99760.71;1681328;84;21012;-74
2021/10/17 11:12:58;;;;;;;14.13;6.55;;;;;;;10.94;52.75;99767.20;1679697;84;21604;-70
2021/10/17 11:15:34;;;;;;;23.73;7.70;;;;;;;10.90;51.61;99763.45;1678283;84;21136;-70
2021/10/17 11:18:13;;;;;;;29.27;9.93;;;;;;;10.83;52.42;99760.34;1678116;84;21029;-73
2021/10/17 11:20:42;;;;;;;27.73;8.88;;;;;;;10.80;52.18;99757.65;1678158;83;21016;-72
2021/10/17 11:23:23;;;;;;;20.23;7.70;;;;;;;10.79;53.39;99760.14;1665766;84;21084;-72
2021/10/17 11:25:57;;;;;;;34.70;8.47;;;;;;;10.80;53.40;99759.59;1679011;84;21524;-72
2021/10/17 11:28:26;;;;;;;15.72;5.70;;;;;;;10.77;52.83;99756.90;1678208;83;21136;-72
2021/10/17 11:31:11;;;;;;;18.60;7.33;;;;;;;10.71;52.79;99755.40;1680020;84;21548;-70
2021/10/17 11:33:40;;;;;;;28.47;9.08;;;;;;;10.67;54.15;99750.28;1680708;84;20996;-72
2021/10/17 11:36:10;;;;;;;24.15;8.60;;;;;;;10.70;53.17;99750.22;1678014;84;21116;-72